Cannon Beach, OR (97110)

4:56 AM PST en Noviembre 22, 2014 (GMT -0800)
Ocean Vista Dr | Change Station
CLOSE
Current Station
Estación meteorológica personal
Location: Seaside, OR
Altura: 16 ft
Estaciones meteorológicas cercanas

Alt 16 ft 45.98 °N, 123.93 °W | Updated 6 seconds ago

Muy nublado
Muy nublado
46.8 ° F
Sensación térmica 45 ° F
N
4.2
Viento Variable Viento desde SSO
Gusts 8.1 mph

Hoy
Alta -- | Baja -- ° F
--% Posibilidad de precipitaciones
Ayer
Alta -- | Baja -- ° F
Precip. -- pul
7:25 AM 4:37 PM
Luna nueva, 0% visible
Presión 29.72 pul
Visibilidad 10.0 Millas
Nubes Baja 3700 ft
Baja 5000 ft
Nubes dispersas 6000 ft
Vientos helados 45 ° F
Punto de rocío 43 ° F
Humedad 87%
Precipitaciones 0.00 pul
Espesor de la nieve No disponible.
UV 0.0 de una escala de 12
Polen .10 de una escala de 12
Calidad del aire No disponible.
Flu Activity No disponible.
METAR KAST 221155Z AUTO 11003KT 10SM FEW037 FEW050 SCT060 05/04 A2972 RMK AO2 SLP062 60001 70136 T00500039 10111 20050 51022

More Conditions Fewer Conditions

Presión 29.72 pul
Visibilidad 10.0 Millas
Nubes Baja 3700 ft
Baja 5000 ft
Nubes dispersas 6000 ft
Vientos helados 45 ° F
Punto de rocío 43 ° F
Humedad 87%
Precipitaciones 0.00 pul
Espesor de la nieve No disponible.
UV 0.0 de una escala de 12
Polen .10 de una escala de 12
Calidad del aire No disponible.
Flu Activity No disponible.
METAR KAST 221155Z AUTO 11003KT 10SM FEW037 FEW050 SCT060 05/04 A2972 RMK AO2 SLP062 60001 70136 T00500039 10111 20050 51022

More Conditions Fewer Conditions

10-Day Weather Forecast

Almanac

Astronomía

Nov. 22, 2014 Salida Puesta
Hora real
Crepúsculo civil
Crepúsculo náutico
Crepúsculo astronómico
Luna
Horas de luz
Horas de luz
Tomorrow will be .
, % of the Moon is Illuminated

Extremos de hoy

Máximos del estado Bajos del estado

Community

WunderPhotos

Upload Photos

1,772,814 ¡fotos cargadas!

WunderBlogs® & News

Nearby

Calidad del aire

  Calidad del aire Índice AQ Contaminante
Not available.

Grosos de nieve

Estación Profundido Altura

Actividad de terremotos

Ciudad Distance Mag. Tiempo y dato
Magnitud mínima muestra es 2,5.

Temperaturas de aguas costeras

Lugar Temperatura

Estaciones meteorológicas cercanas